sensor_id;sensor_type;location;lat;lon;timestamp;temperature;humidity
69595;DHT22;56800;52.142;5.364;2023-05-07T00:01:18;15.50;76.70
69595;DHT22;56800;52.142;5.364;2023-05-07T00:03:45;15.50;76.80
69595;DHT22;56800;52.142;5.364;2023-05-07T00:06:13;15.40;76.80
69595;DHT22;56800;52.142;5.364;2023-05-07T00:08:40;15.40;76.90
69595;DHT22;56800;52.142;5.364;2023-05-07T00:11:07;15.40;76.90
69595;DHT22;56800;52.142;5.364;2023-05-07T00:13:33;15.40;76.80
69595;DHT22;56800;52.142;5.364;2023-05-07T00:16:02;15.40;76.80
69595;DHT22;56800;52.142;5.364;2023-05-07T00:18:29;15.40;76.90
69595;DHT22;56800;52.142;5.364;2023-05-07T00:20:56;15.30;76.90
69595;DHT22;56800;52.142;5.364;2023-05-07T00:23:23;15.30;76.90
69595;DHT22;56800;52.142;5.364;2023-05-07T00:25:50;15.30;76.90
69595;DHT22;56800;52.142;5.364;2023-05-07T00:28:16;15.30;77.00
69595;DHT22;56800;52.142;5.364;2023-05-07T00:30:43;15.20;76.90
69595;DHT22;56800;52.142;5.364;2023-05-07T00:33:10;15.30;77.00
69595;DHT22;56800;52.142;5.364;2023-05-07T00:35:36;15.20;76.90
69595;DHT22;56800;52.142;5.364;2023-05-07T00:38:03;15.20;76.90
69595;DHT22;56800;52.142;5.364;2023-05-07T00:40:30;15.20;76.90
69595;DHT22;56800;52.142;5.364;2023-05-07T00:42:56;15.10;76.90
69595;DHT22;56800;52.142;5.364;2023-05-07T00:45:28;15.10;77.00
69595;DHT22;56800;52.142;5.364;2023-05-07T00:47:57;15.10;77.80
69595;DHT22;56800;52.142;5.364;2023-05-07T00:50:24;15.10;77.10
69595;DHT22;56800;52.142;5.364;2023-05-07T00:52:51;15.10;77.00
69595;DHT22;56800;52.142;5.364;2023-05-07T00:55:18;15.10;77.00
69595;DHT22;56800;52.142;5.364;2023-05-07T00:57:45;15.10;77.10
69595;DHT22;56800;52.142;5.364;2023-05-07T01:00:12;15.00;77.10
69595;DHT22;56800;52.142;5.364;2023-05-07T01:02:40;15.00;77.20
69595;DHT22;56800;52.142;5.364;2023-05-07T01:05:17;15.00;77.20
69595;DHT22;56800;52.142;5.364;2023-05-07T01:07:46;15.00;77.30
69595;DHT22;56800;52.142;5.364;2023-05-07T01:10:14;15.00;77.30
69595;DHT22;56800;52.142;5.364;2023-05-07T01:12:42;15.00;77.40
69595;DHT22;56800;52.142;5.364;2023-05-07T01:15:10;15.00;77.50
69595;DHT22;56800;52.142;5.364;2023-05-07T01:17:39;15.00;77.40
69595;DHT22;56800;52.142;5.364;2023-05-07T01:20:07;15.00;77.50
69595;DHT22;56800;52.142;5.364;2023-05-07T01:22:35;15.00;77.40
69595;DHT22;56800;52.142;5.364;2023-05-07T01:25:04;15.00;77.50
69595;DHT22;56800;52.142;5.364;2023-05-07T01:27:31;14.90;77.40
69595;DHT22;56800;52.142;5.364;2023-05-07T01:29:59;14.90;77.50
69595;DHT22;56800;52.142;5.364;2023-05-07T01:32:36;14.90;77.50
69595;DHT22;56800;52.142;5.364;2023-05-07T01:35:07;14.90;77.70
69595;DHT22;56800;52.142;5.364;2023-05-07T01:37:34;14.90;77.60
69595;DHT22;56800;52.142;5.364;2023-05-07T01:40:02;14.90;77.60
69595;DHT22;56800;52.142;5.364;2023-05-07T01:42:29;15.00;77.70
69595;DHT22;56800;52.142;5.364;2023-05-07T01:44:56;14.90;77.70
69595;DHT22;56800;52.142;5.364;2023-05-07T01:47:24;14.90;77.80
69595;DHT22;56800;52.142;5.364;2023-05-07T01:49:51;15.00;77.80
69595;DHT22;56800;52.142;5.364;2023-05-07T01:52:18;14.90;77.80
69595;DHT22;56800;52.142;5.364;2023-05-07T01:54:45;15.00;77.80
69595;DHT22;56800;52.142;5.364;2023-05-07T01:57:11;14.90;77.80
69595;DHT22;56800;52.142;5.364;2023-05-07T01:59:38;14.90;77.80
69595;DHT22;56800;52.142;5.364;2023-05-07T02:02:04;14.90;77.90
69595;DHT22;56800;52.142;5.364;2023-05-07T02:04:31;15.00;77.90
69595;DHT22;56800;52.142;5.364;2023-05-07T02:06:58;15.00;78.00
69595;DHT22;56800;52.142;5.364;2023-05-07T02:09:24;15.00;78.10
69595;DHT22;56800;52.142;5.364;2023-05-07T02:11:51;15.00;78.00
69595;DHT22;56800;52.142;5.364;2023-05-07T02:14:18;15.00;78.00
69595;DHT22;56800;52.142;5.364;2023-05-07T02:16:46;14.90;78.00
69595;DHT22;56800;52.142;5.364;2023-05-07T02:19:13;14.90;78.00
69595;DHT22;56800;52.142;5.364;2023-05-07T02:21:39;14.90;78.10
69595;DHT22;56800;52.142;5.364;2023-05-07T02:24:06;14.90;78.10
69595;DHT22;56800;52.142;5.364;2023-05-07T02:26:33;14.90;78.10
69595;DHT22;56800;52.142;5.364;2023-05-07T02:29:00;14.90;78.20
69595;DHT22;56800;52.142;5.364;2023-05-07T02:31:27;14.90;78.20
69595;DHT22;56800;52.142;5.364;2023-05-07T02:33:53;14.90;78.20
69595;DHT22;56800;52.142;5.364;2023-05-07T02:36:20;15.00;78.30
69595;DHT22;56800;52.142;5.364;2023-05-07T02:38:47;15.00;78.30
69595;DHT22;56800;52.142;5.364;2023-05-07T02:41:13;14.90;78.30
69595;DHT22;56800;52.142;5.364;2023-05-07T02:43:40;14.90;78.30
69595;DHT22;56800;52.142;5.364;2023-05-07T02:46:08;14.90;78.30
69595;DHT22;56800;52.142;5.364;2023-05-07T02:48:36;14.90;78.30
69595;DHT22;56800;52.142;5.364;2023-05-07T02:51:03;14.90;78.30
69595;DHT22;56800;52.142;5.364;2023-05-07T02:53:30;14.90;78.40
69595;DHT22;56800;52.142;5.364;2023-05-07T02:55:57;14.90;78.40
69595;DHT22;56800;52.142;5.364;2023-05-07T02:58:25;14.90;78.50
69595;DHT22;56800;52.142;5.364;2023-05-07T03:00:52;14.90;78.60
69595;DHT22;56800;52.142;5.364;2023-05-07T03:03:21;14.90;78.60
69595;DHT22;56800;52.142;5.364;2023-05-07T03:05:47;14.90;78.60
69595;DHT22;56800;52.142;5.364;2023-05-07T03:08:14;14.90;78.60
69595;DHT22;56800;52.142;5.364;2023-05-07T03:10:41;14.90;78.60
69595;DHT22;56800;52.142;5.364;2023-05-07T03:13:07;14.90;78.50
69595;DHT22;56800;52.142;5.364;2023-05-07T03:15:34;14.90;78.60
69595;DHT22;56800;52.142;5.364;2023-05-07T03:18:01;14.90;78.70
69595;DHT22;56800;52.142;5.364;2023-05-07T03:20:28;14.90;78.70
69595;DHT22;56800;52.142;5.364;2023-05-07T03:22:55;14.90;78.70
69595;DHT22;56800;52.142;5.364;2023-05-07T03:25:21;14.90;78.70
69595;DHT22;56800;52.142;5.364;2023-05-07T03:27:48;14.90;78.60
69595;DHT22;56800;52.142;5.364;2023-05-07T03:30:15;14.90;78.60
69595;DHT22;56800;52.142;5.364;2023-05-07T03:32:42;14.80;78.60
69595;DHT22;56800;52.142;5.364;2023-05-07T03:35:08;14.80;78.70
69595;DHT22;56800;52.142;5.364;2023-05-07T03:37:36;14.80;78.70
69595;DHT22;56800;52.142;5.364;2023-05-07T03:40:03;14.90;78.70
69595;DHT22;56800;52.142;5.364;2023-05-07T03:42:30;14.80;78.60
69595;DHT22;56800;52.142;5.364;2023-05-07T03:44:57;14.80;78.60
69595;DHT22;56800;52.142;5.364;2023-05-07T03:47:23;14.80;78.60
69595;DHT22;56800;52.142;5.364;2023-05-07T03:49:50;14.80;78.70
69595;DHT22;56800;52.142;5.364;2023-05-07T03:52:19;14.80;78.70
69595;DHT22;56800;52.142;5.364;2023-05-07T03:54:50;14.70;78.70
69595;DHT22;56800;52.142;5.364;2023-05-07T03:57:16;14.70;78.80
69595;DHT22;56800;52.142;5.364;2023-05-07T03:59:43;14.70;78.90
69595;DHT22;56800;52.142;5.364;2023-05-07T04:02:10;14.80;78.90
69595;DHT22;56800;52.142;5.364;2023-05-07T04:04:36;14.70;78.90
69595;DHT22;56800;52.142;5.364;2023-05-07T04:07:03;14.80;79.00
69595;DHT22;56800;52.142;5.364;2023-05-07T04:09:29;14.80;79.00
69595;DHT22;56800;52.142;5.364;2023-05-07T04:11:56;14.80;79.10
69595;DHT22;56800;52.142;5.364;2023-05-07T04:14:23;14.80;79.10
69595;DHT22;56800;52.142;5.364;2023-05-07T04:16:50;14.80;79.10
69595;DHT22;56800;52.142;5.364;2023-05-07T04:19:16;14.70;79.10
69595;DHT22;56800;52.142;5.364;2023-05-07T04:21:43;14.70;79.10
69595;DHT22;56800;52.142;5.364;2023-05-07T04:24:10;14.80;79.20
69595;DHT22;56800;52.142;5.364;2023-05-07T04:26:36;14.70;79.10
69595;DHT22;56800;52.142;5.364;2023-05-07T04:29:03;14.70;79.20
69595;DHT22;56800;52.142;5.364;2023-05-07T04:31:30;14.80;79.30
69595;DHT22;56800;52.142;5.364;2023-05-07T04:33:57;14.80;79.40
69595;DHT22;56800;52.142;5.364;2023-05-07T04:36:23;14.80;79.40
69595;DHT22;56800;52.142;5.364;2023-05-07T04:38:53;14.80;79.30
69595;DHT22;56800;52.142;5.364;2023-05-07T04:41:20;14.80;79.30
69595;DHT22;56800;52.142;5.364;2023-05-07T04:43:47;14.80;79.40
69595;DHT22;56800;52.142;5.364;2023-05-07T04:46:14;14.80;79.30
69595;DHT22;56800;52.142;5.364;2023-05-07T04:48:40;14.80;79.30
69595;DHT22;56800;52.142;5.364;2023-05-07T04:51:07;14.80;79.30
69595;DHT22;56800;52.142;5.364;2023-05-07T04:53:33;14.80;79.30
69595;DHT22;56800;52.142;5.364;2023-05-07T04:56:00;14.80;79.40
69595;DHT22;56800;52.142;5.364;2023-05-07T04:58:27;14.80;79.40
69595;DHT22;56800;52.142;5.364;2023-05-07T05:00:53;14.90;79.40
69595;DHT22;56800;52.142;5.364;2023-05-07T05:03:20;14.90;79.30
69595;DHT22;56800;52.142;5.364;2023-05-07T05:05:49;14.90;79.30
69595;DHT22;56800;52.142;5.364;2023-05-07T05:08:15;14.90;79.20
69595;DHT22;56800;52.142;5.364;2023-05-07T05:10:43;14.90;79.10
69595;DHT22;56800;52.142;5.364;2023-05-07T05:13:10;14.90;79.10
69595;DHT22;56800;52.142;5.364;2023-05-07T05:15:39;14.90;79.10
69595;DHT22;56800;52.142;5.364;2023-05-07T05:18:05;14.90;79.10
69595;DHT22;56800;52.142;5.364;2023-05-07T05:20:33;14.90;79.20
69595;DHT22;56800;52.142;5.364;2023-05-07T05:22:59;14.90;79.20
69595;DHT22;56800;52.142;5.364;2023-05-07T05:25:26;14.90;79.10
69595;DHT22;56800;52.142;5.364;2023-05-07T05:27:53;14.90;79.10
69595;DHT22;56800;52.142;5.364;2023-05-07T05:30:21;14.90;79.10
69595;DHT22;56800;52.142;5.364;2023-05-07T05:32:48;14.90;79.10
69595;DHT22;56800;52.142;5.364;2023-05-07T05:35:15;14.90;79.30
69595;DHT22;56800;52.142;5.364;2023-05-07T05:37:42;14.90;79.40
69595;DHT22;56800;52.142;5.364;2023-05-07T05:40:09;14.90;79.50
69595;DHT22;56800;52.142;5.364;2023-05-07T05:42:36;14.80;79.50
69595;DHT22;56800;52.142;5.364;2023-05-07T05:45:03;14.90;79.50
69595;DHT22;56800;52.142;5.364;2023-05-07T05:47:30;14.90;79.50
69595;DHT22;56800;52.142;5.364;2023-05-07T05:49:57;14.90;79.60
69595;DHT22;56800;52.142;5.364;2023-05-07T05:52:23;14.90;79.70
69595;DHT22;56800;52.142;5.364;2023-05-07T05:54:50;14.90;79.70
69595;DHT22;56800;52.142;5.364;2023-05-07T05:57:17;14.90;79.70
69595;DHT22;56800;52.142;5.364;2023-05-07T05:59:44;15.00;79.70
69595;DHT22;56800;52.142;5.364;2023-05-07T06:02:11;15.00;79.80
69595;DHT22;56800;52.142;5.364;2023-05-07T06:04:38;15.00;79.80
69595;DHT22;56800;52.142;5.364;2023-05-07T06:07:04;15.00;79.80
69595;DHT22;56800;52.142;5.364;2023-05-07T06:09:31;15.00;79.80
69595;DHT22;56800;52.142;5.364;2023-05-07T06:11:57;15.10;79.90
69595;DHT22;56800;52.142;5.364;2023-05-07T06:14:26;15.10;79.80
69595;DHT22;56800;52.142;5.364;2023-05-07T06:16:53;15.10;79.80
69595;DHT22;56800;52.142;5.364;2023-05-07T06:19:20;15.10;79.80
69595;DHT22;56800;52.142;5.364;2023-05-07T06:21:50;15.10;79.90
69595;DHT22;56800;52.142;5.364;2023-05-07T06:24:16;15.20;79.90
69595;DHT22;56800;52.142;5.364;2023-05-07T06:26:43;15.20;79.80
69595;DHT22;56800;52.142;5.364;2023-05-07T06:29:10;15.20;79.70
69595;DHT22;56800;52.142;5.364;2023-05-07T06:31:37;15.20;79.70
69595;DHT22;56800;52.142;5.364;2023-05-07T06:34:03;15.20;79.60
69595;DHT22;56800;52.142;5.364;2023-05-07T06:36:31;15.20;79.60
69595;DHT22;56800;52.142;5.364;2023-05-07T06:38:58;15.20;79.60
69595;DHT22;56800;52.142;5.364;2023-05-07T06:41:24;15.20;79.70
69595;DHT22;56800;52.142;5.364;2023-05-07T06:43:52;15.30;79.80
69595;DHT22;56800;52.142;5.364;2023-05-07T06:46:18;15.30;79.90
69595;DHT22;56800;52.142;5.364;2023-05-07T06:48:45;15.30;79.90
69595;DHT22;56800;52.142;5.364;2023-05-07T06:51:12;15.40;79.90
69595;DHT22;56800;52.142;5.364;2023-05-07T06:53:39;15.40;79.80
69595;DHT22;56800;52.142;5.364;2023-05-07T06:56:05;15.40;79.70
69595;DHT22;56800;52.142;5.364;2023-05-07T06:58:32;15.40;79.60
69595;DHT22;56800;52.142;5.364;2023-05-07T07:00:59;15.50;79.70
69595;DHT22;56800;52.142;5.364;2023-05-07T07:03:26;15.50;79.80
69595;DHT22;56800;52.142;5.364;2023-05-07T07:05:54;15.50;79.90
69595;DHT22;56800;52.142;5.364;2023-05-07T07:08:22;15.50;79.90
69595;DHT22;56800;52.142;5.364;2023-05-07T07:10:48;15.60;80.00
69595;DHT22;56800;52.142;5.364;2023-05-07T07:13:15;15.60;80.10
69595;DHT22;56800;52.142;5.364;2023-05-07T07:15:43;15.70;80.10
69595;DHT22;56800;52.142;5.364;2023-05-07T07:18:10;15.80;80.10
69595;DHT22;56800;52.142;5.364;2023-05-07T07:20:36;15.80;80.20
69595;DHT22;56800;52.142;5.364;2023-05-07T07:23:03;15.90;80.10
69595;DHT22;56800;52.142;5.364;2023-05-07T07:25:30;15.90;80.10
69595;DHT22;56800;52.142;5.364;2023-05-07T07:27:56;16.00;80.00
69595;DHT22;56800;52.142;5.364;2023-05-07T07:30:23;16.00;79.90
69595;DHT22;56800;52.142;5.364;2023-05-07T07:32:50;16.10;80.00
69595;DHT22;56800;52.142;5.364;2023-05-07T07:35:18;16.10;79.80
69595;DHT22;56800;52.142;5.364;2023-05-07T07:37:45;16.20;79.60
69595;DHT22;56800;52.142;5.364;2023-05-07T07:40:12;16.30;79.80
69595;DHT22;56800;52.142;5.364;2023-05-07T07:42:39;16.30;79.60
69595;DHT22;56800;52.142;5.364;2023-05-07T07:45:06;16.40;79.40
69595;DHT22;56800;52.142;5.364;2023-05-07T07:47:33;16.40;79.40
69595;DHT22;56800;52.142;5.364;2023-05-07T07:49:59;16.50;79.40
69595;DHT22;56800;52.142;5.364;2023-05-07T07:52:26;16.60;79.50
69595;DHT22;56800;52.142;5.364;2023-05-07T07:54:53;16.60;79.50
69595;DHT22;56800;52.142;5.364;2023-05-07T07:57:19;16.70;79.30
69595;DHT22;56800;52.142;5.364;2023-05-07T07:59:46;16.80;79.10
69595;DHT22;56800;52.142;5.364;2023-05-07T08:02:13;16.80;78.90
69595;DHT22;56800;52.142;5.364;2023-05-07T08:04:39;16.80;78.80
69595;DHT22;56800;52.142;5.364;2023-05-07T08:07:07;16.80;78.70
69595;DHT22;56800;52.142;5.364;2023-05-07T08:09:33;16.90;78.80
69595;DHT22;56800;52.142;5.364;2023-05-07T08:12:00;16.80;78.70
69595;DHT22;56800;52.142;5.364;2023-05-07T08:14:28;16.90;78.50
69595;DHT22;56800;52.142;5.364;2023-05-07T08:16:55;16.90;78.30
69595;DHT22;56800;52.142;5.364;2023-05-07T08:19:21;16.90;78.20
69595;DHT22;56800;52.142;5.364;2023-05-07T08:21:49;16.90;78.10
69595;DHT22;56800;52.142;5.364;2023-05-07T08:24:17;16.90;78.20
69595;DHT22;56800;52.142;5.364;2023-05-07T08:26:44;16.90;78.10
69595;DHT22;56800;52.142;5.364;2023-05-07T08:29:12;16.90;78.10
69595;DHT22;56800;52.142;5.364;2023-05-07T08:31:39;16.90;78.10
69595;DHT22;56800;52.142;5.364;2023-05-07T08:34:06;16.90;78.20
69595;DHT22;56800;52.142;5.364;2023-05-07T08:36:35;17.00;78.30
69595;DHT22;56800;52.142;5.364;2023-05-07T08:39:02;17.00;78.20
69595;DHT22;56800;52.142;5.364;2023-05-07T08:41:29;17.00;78.10
69595;DHT22;56800;52.142;5.364;2023-05-07T08:43:58;17.10;78.00
69595;DHT22;56800;52.142;5.364;2023-05-07T08:46:31;17.10;77.90
69595;DHT22;56800;52.142;5.364;2023-05-07T08:48:58;17.20;77.90
69595;DHT22;56800;52.142;5.364;2023-05-07T08:51:25;17.20;77.90
69595;DHT22;56800;52.142;5.364;2023-05-07T08:53:52;17.20;77.80
69595;DHT22;56800;52.142;5.364;2023-05-07T08:56:18;17.20;78.00
69595;DHT22;56800;52.142;5.364;2023-05-07T08:58:48;17.20;78.00
69595;DHT22;56800;52.142;5.364;2023-05-07T09:01:16;17.20;77.90
69595;DHT22;56800;52.142;5.364;2023-05-07T09:03:46;17.20;77.70
69595;DHT22;56800;52.142;5.364;2023-05-07T09:06:13;17.30;77.70
69595;DHT22;56800;52.142;5.364;2023-05-07T09:08:40;17.30;77.70
69595;DHT22;56800;52.142;5.364;2023-05-07T09:11:07;17.30;77.60
69595;DHT22;56800;52.142;5.364;2023-05-07T09:13:33;17.30;77.80
69595;DHT22;56800;52.142;5.364;2023-05-07T09:16:10;17.40;77.70
69595;DHT22;56800;52.142;5.364;2023-05-07T09:18:42;17.40;77.70
69595;DHT22;56800;52.142;5.364;2023-05-07T09:21:18;17.40;77.70
69595;DHT22;56800;52.142;5.364;2023-05-07T09:23:45;17.40;77.60
69595;DHT22;56800;52.142;5.364;2023-05-07T09:26:12;17.40;77.40
69595;DHT22;56800;52.142;5.364;2023-05-07T09:28:40;17.50;77.40
69595;DHT22;56800;52.142;5.364;2023-05-07T09:31:08;17.50;77.20
69595;DHT22;56800;52.142;5.364;2023-05-07T09:33:35;17.50;77.10
69595;DHT22;56800;52.142;5.364;2023-05-07T09:36:06;17.60;77.00
69595;DHT22;56800;52.142;5.364;2023-05-07T09:38:34;17.60;76.90
69595;DHT22;56800;52.142;5.364;2023-05-07T09:41:13;17.70;76.90
69595;DHT22;56800;52.142;5.364;2023-05-07T09:43:40;17.70;76.70
69595;DHT22;56800;52.142;5.364;2023-05-07T09:46:14;17.70;76.60
69595;DHT22;56800;52.142;5.364;2023-05-07T09:48:43;17.80;76.60
69595;DHT22;56800;52.142;5.364;2023-05-07T09:51:39;17.80;76.70
69595;DHT22;56800;52.142;5.364;2023-05-07T09:54:07;17.90;76.90
69595;DHT22;56800;52.142;5.364;2023-05-07T09:56:35;18.00;76.80
69595;DHT22;56800;52.142;5.364;2023-05-07T09:59:05;18.10;76.70
69595;DHT22;56800;52.142;5.364;2023-05-07T10:01:36;18.10;76.50
69595;DHT22;56800;52.142;5.364;2023-05-07T10:04:03;18.20;76.00
69595;DHT22;56800;52.142;5.364;2023-05-07T10:06:30;18.20;75.80
69595;DHT22;56800;52.142;5.364;2023-05-07T10:08:58;18.30;76.00
69595;DHT22;56800;52.142;5.364;2023-05-07T10:11:25;18.30;75.40
69595;DHT22;56800;52.142;5.364;2023-05-07T10:13:53;18.40;75.10
69595;DHT22;56800;52.142;5.364;2023-05-07T10:16:21;18.50;75.30
69595;DHT22;56800;52.142;5.364;2023-05-07T10:18:47;18.50;75.10
69595;DHT22;56800;52.142;5.364;2023-05-07T10:21:17;18.50;74.40
69595;DHT22;56800;52.142;5.364;2023-05-07T10:23:45;18.50;74.40
69595;DHT22;56800;52.142;5.364;2023-05-07T10:26:15;18.70;74.40
69595;DHT22;56800;52.142;5.364;2023-05-07T10:28:46;18.70;74.00
69595;DHT22;56800;52.142;5.364;2023-05-07T10:31:35;18.70;73.80
69595;DHT22;56800;52.142;5.364;2023-05-07T10:34:12;18.70;73.90
69595;DHT22;56800;52.142;5.364;2023-05-07T10:36:40;18.80;74.10
69595;DHT22;56800;52.142;5.364;2023-05-07T10:39:08;18.90;73.80
69595;DHT22;56800;52.142;5.364;2023-05-07T10:41:36;18.90;73.50
69595;DHT22;56800;52.142;5.364;2023-05-07T10:44:03;19.00;73.50
69595;DHT22;56800;52.142;5.364;2023-05-07T10:46:30;19.10;73.40
69595;DHT22;56800;52.142;5.364;2023-05-07T10:51:35;19.20;72.50
69595;DHT22;56800;52.142;5.364;2023-05-07T10:56:42;19.50;72.30
69595;DHT22;56800;52.142;5.364;2023-05-07T11:01:52;19.60;71.50
69595;DHT22;56800;52.142;5.364;2023-05-07T11:04:19;19.70;71.40
69595;DHT22;56800;52.142;5.364;2023-05-07T11:07:19;19.70;72.00
69595;DHT22;56800;52.142;5.364;2023-05-07T11:15:08;19.80;71.60
69595;DHT22;56800;52.142;5.364;2023-05-07T11:17:52;19.90;71.70
69595;DHT22;56800;52.142;5.364;2023-05-07T11:20:20;19.90;71.20
69595;DHT22;56800;52.142;5.364;2023-05-07T11:22:47;20.00;71.20
69595;DHT22;56800;52.142;5.364;2023-05-07T11:25:18;20.10;70.90
69595;DHT22;56800;52.142;5.364;2023-05-07T11:27:47;20.10;70.80
69595;DHT22;56800;52.142;5.364;2023-05-07T11:30:17;20.20;70.70
69595;DHT22;56800;52.142;5.364;2023-05-07T11:32:47;20.20;70.80
69595;DHT22;56800;52.142;5.364;2023-05-07T11:35:15;20.20;70.70
69595;DHT22;56800;52.142;5.364;2023-05-07T11:37:43;20.30;70.40
69595;DHT22;56800;52.142;5.364;2023-05-07T11:40:11;20.40;70.10
69595;DHT22;56800;52.142;5.364;2023-05-07T11:42:40;20.40;69.90
69595;DHT22;56800;52.142;5.364;2023-05-07T11:45:10;20.50;69.80
69595;DHT22;56800;52.142;5.364;2023-05-07T11:47:37;20.50;69.50
69595;DHT22;56800;52.142;5.364;2023-05-07T11:50:07;20.60;69.20
69595;DHT22;56800;52.142;5.364;2023-05-07T11:52:35;20.70;68.80
69595;DHT22;56800;52.142;5.364;2023-05-07T11:55:02;20.90;68.70
69595;DHT22;56800;52.142;5.364;2023-05-07T11:57:30;21.00;68.70
69595;DHT22;56800;52.142;5.364;2023-05-07T11:59:58;21.20;68.80
69595;DHT22;56800;52.142;5.364;2023-05-07T12:02:25;21.30;68.50
69595;DHT22;56800;52.142;5.364;2023-05-07T12:04:53;21.40;68.30
69595;DHT22;56800;52.142;5.364;2023-05-07T12:07:20;21.50;68.10
69595;DHT22;56800;52.142;5.364;2023-05-07T12:09:48;21.60;67.50
69595;DHT22;56800;52.142;5.364;2023-05-07T12:12:14;21.60;67.40
69595;DHT22;56800;52.142;5.364;2023-05-07T12:14:44;21.70;67.50
69595;DHT22;56800;52.142;5.364;2023-05-07T12:17:13;21.80;67.30
69595;DHT22;56800;52.142;5.364;2023-05-07T12:19:41;21.90;66.90
69595;DHT22;56800;52.142;5.364;2023-05-07T12:22:09;22.00;66.90
69595;DHT22;56800;52.142;5.364;2023-05-07T12:24:56;22.00;66.90
69595;DHT22;56800;52.142;5.364;2023-05-07T12:27:23;22.10;66.60
69595;DHT22;56800;52.142;5.364;2023-05-07T12:29:50;22.20;67.00
69595;DHT22;56800;52.142;5.364;2023-05-07T12:32:19;22.30;66.20
69595;DHT22;56800;52.142;5.364;2023-05-07T12:34:49;22.40;65.70
69595;DHT22;56800;52.142;5.364;2023-05-07T12:37:16;22.50;65.70
69595;DHT22;56800;52.142;5.364;2023-05-07T12:40:02;22.50;65.90
69595;DHT22;56800;52.142;5.364;2023-05-07T12:42:33;22.60;65.00
69595;DHT22;56800;52.142;5.364;2023-05-07T12:45:11;22.60;64.60
69595;DHT22;56800;52.142;5.364;2023-05-07T12:47:38;22.60;64.30
69595;DHT22;56800;52.142;5.364;2023-05-07T12:50:06;22.60;64.50
69595;DHT22;56800;52.142;5.364;2023-05-07T12:52:34;22.70;64.60
69595;DHT22;56800;52.142;5.364;2023-05-07T12:55:07;22.80;64.10
69595;DHT22;56800;52.142;5.364;2023-05-07T12:57:39;22.80;63.30
69595;DHT22;56800;52.142;5.364;2023-05-07T13:00:07;22.80;63.40
69595;DHT22;56800;52.142;5.364;2023-05-07T13:02:36;22.80;63.00
69595;DHT22;56800;52.142;5.364;2023-05-07T13:05:04;22.80;63.10
69595;DHT22;56800;52.142;5.364;2023-05-07T13:07:30;22.80;63.50
69595;DHT22;56800;52.142;5.364;2023-05-07T13:09:57;22.80;63.30
69595;DHT22;56800;52.142;5.364;2023-05-07T13:12:24;22.80;63.10
69595;DHT22;56800;52.142;5.364;2023-05-07T13:14:50;22.70;63.40
69595;DHT22;56800;52.142;5.364;2023-05-07T13:17:17;22.70;63.50
69595;DHT22;56800;52.142;5.364;2023-05-07T13:19:45;22.80;64.00
69595;DHT22;56800;52.142;5.364;2023-05-07T13:22:11;22.80;63.20
69595;DHT22;56800;52.142;5.364;2023-05-07T13:24:38;23.00;63.20
69595;DHT22;56800;52.142;5.364;2023-05-07T13:27:08;23.20;62.70
69595;DHT22;56800;52.142;5.364;2023-05-07T13:29:34;23.30;61.10
69595;DHT22;56800;52.142;5.364;2023-05-07T13:32:01;23.30;60.30
69595;DHT22;56800;52.142;5.364;2023-05-07T13:34:28;23.30;59.90
69595;DHT22;56800;52.142;5.364;2023-05-07T13:36:54;23.20;59.70
69595;DHT22;56800;52.142;5.364;2023-05-07T13:39:21;23.20;59.30
69595;DHT22;56800;52.142;5.364;2023-05-07T13:41:48;23.20;59.40
69595;DHT22;56800;52.142;5.364;2023-05-07T13:44:15;23.20;58.90
69595;DHT22;56800;52.142;5.364;2023-05-07T13:46:41;23.10;59.10
69595;DHT22;56800;52.142;5.364;2023-05-07T13:49:08;23.20;59.20
69595;DHT22;56800;52.142;5.364;2023-05-07T13:51:37;23.20;59.10
69595;DHT22;56800;52.142;5.364;2023-05-07T13:54:04;23.10;59.60
69595;DHT22;56800;52.142;5.364;2023-05-07T13:56:31;23.10;60.30
69595;DHT22;56800;52.142;5.364;2023-05-07T13:58:58;23.20;60.20
69595;DHT22;56800;52.142;5.364;2023-05-07T14:01:27;23.10;60.40
69595;DHT22;56800;52.142;5.364;2023-05-07T14:03:55;23.10;60.90
69595;DHT22;56800;52.142;5.364;2023-05-07T14:06:21;23.20;61.00
69595;DHT22;56800;52.142;5.364;2023-05-07T14:08:48;23.20;61.00
69595;DHT22;56800;52.142;5.364;2023-05-07T14:11:15;23.20;61.20
69595;DHT22;56800;52.142;5.364;2023-05-07T14:13:41;23.20;61.40
69595;DHT22;56800;52.142;5.364;2023-05-07T14:16:08;23.20;61.10
69595;DHT22;56800;52.142;5.364;2023-05-07T14:18:35;23.20;61.10
69595;DHT22;56800;52.142;5.364;2023-05-07T14:21:04;23.20;61.00
69595;DHT22;56800;52.142;5.364;2023-05-07T14:23:32;23.20;61.10
69595;DHT22;56800;52.142;5.364;2023-05-07T14:25:59;23.10;60.90
69595;DHT22;56800;52.142;5.364;2023-05-07T14:28:26;23.10;60.80
69595;DHT22;56800;52.142;5.364;2023-05-07T14:30:53;23.00;61.00
69595;DHT22;56800;52.142;5.364;2023-05-07T14:33:19;23.00;60.90
69595;DHT22;56800;52.142;5.364;2023-05-07T14:35:46;22.90;61.10
69595;DHT22;56800;52.142;5.364;2023-05-07T14:38:15;22.80;61.20
69595;DHT22;56800;52.142;5.364;2023-05-07T14:40:42;22.80;61.40
69595;DHT22;56800;52.142;5.364;2023-05-07T14:43:08;22.70;61.30
69595;DHT22;56800;52.142;5.364;2023-05-07T14:45:35;22.60;61.30
69595;DHT22;56800;52.142;5.364;2023-05-07T14:48:02;22.60;61.40
69595;DHT22;56800;52.142;5.364;2023-05-07T14:50:29;22.60;61.90
69595;DHT22;56800;52.142;5.364;2023-05-07T14:52:56;22.50;62.30
69595;DHT22;56800;52.142;5.364;2023-05-07T14:55:22;22.50;61.90
69595;DHT22;56800;52.142;5.364;2023-05-07T14:57:49;22.40;61.70
69595;DHT22;56800;52.142;5.364;2023-05-07T15:00:16;22.30;61.80
69595;DHT22;56800;52.142;5.364;2023-05-07T15:02:43;22.30;62.00
69595;DHT22;56800;52.142;5.364;2023-05-07T15:05:09;22.20;61.80
69595;DHT22;56800;52.142;5.364;2023-05-07T15:07:36;22.10;61.80
69595;DHT22;56800;52.142;5.364;2023-05-07T15:10:03;22.00;62.20
69595;DHT22;56800;52.142;5.364;2023-05-07T15:12:30;22.00;61.90
69595;DHT22;56800;52.142;5.364;2023-05-07T15:14:57;21.90;62.10
69595;DHT22;56800;52.142;5.364;2023-05-07T15:17:24;21.80;62.00
69595;DHT22;56800;52.142;5.364;2023-05-07T15:19:50;21.80;62.00
69595;DHT22;56800;52.142;5.364;2023-05-07T15:22:20;21.70;62.20
69595;DHT22;56800;52.142;5.364;2023-05-07T15:24:48;21.60;62.60
69595;DHT22;56800;52.142;5.364;2023-05-07T15:27:14;21.40;63.10
69595;DHT22;56800;52.142;5.364;2023-05-07T15:29:43;21.30;63.70
69595;DHT22;56800;52.142;5.364;2023-05-07T15:32:09;21.10;63.90
69595;DHT22;56800;52.142;5.364;2023-05-07T15:34:36;20.90;63.90
69595;DHT22;56800;52.142;5.364;2023-05-07T15:37:03;20.70;64.10
69595;DHT22;56800;52.142;5.364;2023-05-07T15:39:30;20.50;64.40
69595;DHT22;56800;52.142;5.364;2023-05-07T15:41:57;20.30;64.80
69595;DHT22;56800;52.142;5.364;2023-05-07T15:44:24;20.10;65.30
69595;DHT22;56800;52.142;5.364;2023-05-07T15:46:54;20.00;65.60